sensor_id;sensor_type;location;lat;lon;timestamp;temperature;humidity
21255;DHT22;10785;50.674;17.954;2023-09-12T00:00:00;18.00;99.90
21255;DHT22;10785;50.674;17.954;2023-09-12T00:02:39;17.90;99.90
21255;DHT22;10785;50.674;17.954;2023-09-12T00:05:08;17.80;99.90
21255;DHT22;10785;50.674;17.954;2023-09-12T00:07:38;17.80;99.90
21255;DHT22;10785;50.674;17.954;2023-09-12T00:10:08;17.90;99.90
21255;DHT22;10785;50.674;17.954;2023-09-12T00:12:36;17.80;99.90
21255;DHT22;10785;50.674;17.954;2023-09-12T00:15:06;17.90;99.90
21255;DHT22;10785;50.674;17.954;2023-09-12T00:17:35;17.80;99.90
21255;DHT22;10785;50.674;17.954;2023-09-12T00:20:06;17.70;99.90
21255;DHT22;10785;50.674;17.954;2023-09-12T00:22:35;17.60;99.90
21255;DHT22;10785;50.674;17.954;2023-09-12T00:25:05;17.60;99.90
21255;DHT22;10785;50.674;17.954;2023-09-12T00:27:33;17.50;99.90
21255;DHT22;10785;50.674;17.954;2023-09-12T00:30:03;17.40;99.90
21255;DHT22;10785;50.674;17.954;2023-09-12T00:32:32;17.40;99.90
21255;DHT22;10785;50.674;17.954;2023-09-12T00:35:01;17.40;99.90
21255;DHT22;10785;50.674;17.954;2023-09-12T00:37:31;17.30;99.90
21255;DHT22;10785;50.674;17.954;2023-09-12T00:40:00;17.30;99.90
21255;DHT22;10785;50.674;17.954;2023-09-12T00:42:30;17.30;99.90
21255;DHT22;10785;50.674;17.954;2023-09-12T00:44:58;17.30;99.90
21255;DHT22;10785;50.674;17.954;2023-09-12T00:47:28;17.20;99.90
21255;DHT22;10785;50.674;17.954;2023-09-12T00:49:58;17.20;99.90
21255;DHT22;10785;50.674;17.954;2023-09-12T00:52:32;17.20;99.90
21255;DHT22;10785;50.674;17.954;2023-09-12T00:55:02;17.10;99.90
21255;DHT22;10785;50.674;17.954;2023-09-12T00:57:32;17.10;99.90
21255;DHT22;10785;50.674;17.954;2023-09-12T01:00:02;17.10;99.90
21255;DHT22;10785;50.674;17.954;2023-09-12T01:02:39;17.00;99.90
21255;DHT22;10785;50.674;17.954;2023-09-12T01:05:09;17.00;99.90
21255;DHT22;10785;50.674;17.954;2023-09-12T01:07:42;17.00;99.90
21255;DHT22;10785;50.674;17.954;2023-09-12T01:10:11;17.00;99.90
21255;DHT22;10785;50.674;17.954;2023-09-12T01:12:39;17.00;99.90
21255;DHT22;10785;50.674;17.954;2023-09-12T01:15:08;17.00;99.90
21255;DHT22;10785;50.674;17.954;2023-09-12T01:17:42;17.00;99.90
21255;DHT22;10785;50.674;17.954;2023-09-12T01:20:14;16.90;99.90
21255;DHT22;10785;50.674;17.954;2023-09-12T01:22:56;16.90;99.90
21255;DHT22;10785;50.674;17.954;2023-09-12T01:25:57;16.90;99.90
21255;DHT22;10785;50.674;17.954;2023-09-12T01:28:31;16.90;99.90
21255;DHT22;10785;50.674;17.954;2023-09-12T01:31:04;16.90;99.90
21255;DHT22;10785;50.674;17.954;2023-09-12T01:33:33;16.90;99.90
21255;DHT22;10785;50.674;17.954;2023-09-12T01:36:02;16.90;99.90
21255;DHT22;10785;50.674;17.954;2023-09-12T01:38:31;16.90;99.90
21255;DHT22;10785;50.674;17.954;2023-09-12T01:40:59;17.00;99.90
21255;DHT22;10785;50.674;17.954;2023-09-12T01:43:31;16.90;99.90
21255;DHT22;10785;50.674;17.954;2023-09-12T01:46:01;16.90;99.90
21255;DHT22;10785;50.674;17.954;2023-09-12T01:48:33;16.90;99.90
21255;DHT22;10785;50.674;17.954;2023-09-12T01:51:04;16.90;99.90
21255;DHT22;10785;50.674;17.954;2023-09-12T01:53:34;16.90;99.90
21255;DHT22;10785;50.674;17.954;2023-09-12T01:56:03;16.90;99.90
21255;DHT22;10785;50.674;17.954;2023-09-12T01:58:34;16.80;99.90
21255;DHT22;10785;50.674;17.954;2023-09-12T02:01:03;16.80;99.90
21255;DHT22;10785;50.674;17.954;2023-09-12T02:03:32;16.80;99.90
21255;DHT22;10785;50.674;17.954;2023-09-12T02:06:02;16.70;99.90
21255;DHT22;10785;50.674;17.954;2023-09-12T02:08:31;16.70;99.90
21255;DHT22;10785;50.674;17.954;2023-09-12T02:11:00;16.60;99.90
21255;DHT22;10785;50.674;17.954;2023-09-12T02:13:29;16.70;99.90
21255;DHT22;10785;50.674;17.954;2023-09-12T02:16:02;16.70;99.90
21255;DHT22;10785;50.674;17.954;2023-09-12T02:18:31;16.70;99.90
21255;DHT22;10785;50.674;17.954;2023-09-12T02:21:05;16.70;99.90
21255;DHT22;10785;50.674;17.954;2023-09-12T02:23:33;16.70;99.90
21255;DHT22;10785;50.674;17.954;2023-09-12T02:26:02;16.70;99.90
21255;DHT22;10785;50.674;17.954;2023-09-12T02:28:31;16.80;99.90
21255;DHT22;10785;50.674;17.954;2023-09-12T02:31:01;16.80;99.90
21255;DHT22;10785;50.674;17.954;2023-09-12T02:33:30;16.70;99.90
21255;DHT22;10785;50.674;17.954;2023-09-12T02:35:59;16.60;99.90
21255;DHT22;10785;50.674;17.954;2023-09-12T02:38:28;16.60;99.90
21255;DHT22;10785;50.674;17.954;2023-09-12T02:40:57;16.60;99.90
21255;DHT22;10785;50.674;17.954;2023-09-12T02:43:25;16.60;99.90
21255;DHT22;10785;50.674;17.954;2023-09-12T02:45:54;16.50;99.90
21255;DHT22;10785;50.674;17.954;2023-09-12T02:48:24;16.50;99.90
21255;DHT22;10785;50.674;17.954;2023-09-12T02:50:54;16.40;99.90
21255;DHT22;10785;50.674;17.954;2023-09-12T02:53:22;16.40;99.90
21255;DHT22;10785;50.674;17.954;2023-09-12T02:55:51;16.40;99.90
21255;DHT22;10785;50.674;17.954;2023-09-12T02:58:21;16.40;99.90
21255;DHT22;10785;50.674;17.954;2023-09-12T03:00:50;16.40;99.90
21255;DHT22;10785;50.674;17.954;2023-09-12T03:03:26;16.40;99.90
21255;DHT22;10785;50.674;17.954;2023-09-12T03:05:58;16.30;99.90
21255;DHT22;10785;50.674;17.954;2023-09-12T03:08:27;16.30;99.90
21255;DHT22;10785;50.674;17.954;2023-09-12T03:10:56;16.40;99.90
21255;DHT22;10785;50.674;17.954;2023-09-12T03:13:25;16.40;99.90
21255;DHT22;10785;50.674;17.954;2023-09-12T03:15:54;16.40;99.90
21255;DHT22;10785;50.674;17.954;2023-09-12T03:18:24;16.50;99.90
21255;DHT22;10785;50.674;17.954;2023-09-12T03:20:55;16.50;99.90
21255;DHT22;10785;50.674;17.954;2023-09-12T03:23:24;16.60;99.90
21255;DHT22;10785;50.674;17.954;2023-09-12T03:25:52;16.50;99.90
21255;DHT22;10785;50.674;17.954;2023-09-12T03:28:21;16.50;99.90
21255;DHT22;10785;50.674;17.954;2023-09-12T03:30:50;16.40;99.90
21255;DHT22;10785;50.674;17.954;2023-09-12T03:33:18;16.40;99.90
21255;DHT22;10785;50.674;17.954;2023-09-12T03:35:49;16.30;99.90
21255;DHT22;10785;50.674;17.954;2023-09-12T03:38:18;16.30;99.90
21255;DHT22;10785;50.674;17.954;2023-09-12T03:40:46;16.20;99.90
21255;DHT22;10785;50.674;17.954;2023-09-12T03:43:16;16.20;99.90
21255;DHT22;10785;50.674;17.954;2023-09-12T03:45:44;16.10;99.90
21255;DHT22;10785;50.674;17.954;2023-09-12T03:48:13;16.10;99.90
21255;DHT22;10785;50.674;17.954;2023-09-12T03:50:42;16.10;99.90
21255;DHT22;10785;50.674;17.954;2023-09-12T03:53:14;16.00;99.90
21255;DHT22;10785;50.674;17.954;2023-09-12T03:55:43;16.00;99.90
21255;DHT22;10785;50.674;17.954;2023-09-12T03:58:12;15.90;99.90
21255;DHT22;10785;50.674;17.954;2023-09-12T04:00:41;15.90;99.90
21255;DHT22;10785;50.674;17.954;2023-09-12T04:03:12;15.90;99.90
21255;DHT22;10785;50.674;17.954;2023-09-12T04:05:41;15.90;99.90
21255;DHT22;10785;50.674;17.954;2023-09-12T04:08:14;16.00;99.90
21255;DHT22;10785;50.674;17.954;2023-09-12T04:10:43;16.00;99.90
21255;DHT22;10785;50.674;17.954;2023-09-12T04:13:12;16.00;99.90
21255;DHT22;10785;50.674;17.954;2023-09-12T04:15:41;16.00;99.90
21255;DHT22;10785;50.674;17.954;2023-09-12T04:18:09;16.10;99.90
21255;DHT22;10785;50.674;17.954;2023-09-12T04:20:38;16.10;99.90
21255;DHT22;10785;50.674;17.954;2023-09-12T04:23:07;16.10;99.90
21255;DHT22;10785;50.674;17.954;2023-09-12T04:25:37;16.10;99.90
21255;DHT22;10785;50.674;17.954;2023-09-12T04:28:06;16.10;99.90
21255;DHT22;10785;50.674;17.954;2023-09-12T04:30:35;16.10;99.90
21255;DHT22;10785;50.674;17.954;2023-09-12T04:33:04;16.20;99.90
21255;DHT22;10785;50.674;17.954;2023-09-12T04:35:33;16.30;99.90
21255;DHT22;10785;50.674;17.954;2023-09-12T04:38:02;16.40;99.90
21255;DHT22;10785;50.674;17.954;2023-09-12T04:40:32;16.60;99.90
21255;DHT22;10785;50.674;17.954;2023-09-12T04:43:02;16.90;99.90
21255;DHT22;10785;50.674;17.954;2023-09-12T04:45:33;17.10;99.90
21255;DHT22;10785;50.674;17.954;2023-09-12T04:48:03;17.50;99.90
21255;DHT22;10785;50.674;17.954;2023-09-12T04:50:32;17.70;99.90
21255;DHT22;10785;50.674;17.954;2023-09-12T04:53:01;17.70;99.90
21255;DHT22;10785;50.674;17.954;2023-09-12T04:55:29;18.00;99.90
21255;DHT22;10785;50.674;17.954;2023-09-12T04:57:58;18.40;99.90
21255;DHT22;10785;50.674;17.954;2023-09-12T05:00:29;18.60;99.90
21255;DHT22;10785;50.674;17.954;2023-09-12T05:02:58;18.80;99.90
21255;DHT22;10785;50.674;17.954;2023-09-12T05:05:27;19.30;99.90
21255;DHT22;10785;50.674;17.954;2023-09-12T05:07:55;19.80;99.90
21255;DHT22;10785;50.674;17.954;2023-09-12T05:10:24;20.20;99.90
21255;DHT22;10785;50.674;17.954;2023-09-12T05:12:53;20.60;99.90
21255;DHT22;10785;50.674;17.954;2023-09-12T05:15:22;20.90;99.90
21255;DHT22;10785;50.674;17.954;2023-09-12T05:17:52;21.40;99.90
21255;DHT22;10785;50.674;17.954;2023-09-12T05:20:20;21.70;99.90
21255;DHT22;10785;50.674;17.954;2023-09-12T05:22:49;21.90;99.90
21255;DHT22;10785;50.674;17.954;2023-09-12T05:25:18;21.90;99.90
21255;DHT22;10785;50.674;17.954;2023-09-12T05:27:46;22.00;99.90
21255;DHT22;10785;50.674;17.954;2023-09-12T05:30:15;22.40;99.90
21255;DHT22;10785;50.674;17.954;2023-09-12T05:32:44;22.70;99.90
21255;DHT22;10785;50.674;17.954;2023-09-12T05:35:14;23.10;99.90
21255;DHT22;10785;50.674;17.954;2023-09-12T05:37:50;23.40;99.90
21255;DHT22;10785;50.674;17.954;2023-09-12T05:40:20;23.70;99.90
21255;DHT22;10785;50.674;17.954;2023-09-12T05:42:52;23.70;99.90
21255;DHT22;10785;50.674;17.954;2023-09-12T05:45:21;24.30;99.90
21255;DHT22;10785;50.674;17.954;2023-09-12T05:47:51;24.50;99.60
21255;DHT22;10785;50.674;17.954;2023-09-12T05:50:21;24.50;99.10
21255;DHT22;10785;50.674;17.954;2023-09-12T05:52:51;24.70;98.20
21255;DHT22;10785;50.674;17.954;2023-09-12T05:55:19;24.90;96.80
21255;DHT22;10785;50.674;17.954;2023-09-12T05:57:48;24.70;96.20
21255;DHT22;10785;50.674;17.954;2023-09-12T06:00:21;24.80;96.20
21255;DHT22;10785;50.674;17.954;2023-09-12T06:02:49;24.80;95.80
21255;DHT22;10785;50.674;17.954;2023-09-12T06:05:20;25.00;95.00
21255;DHT22;10785;50.674;17.954;2023-09-12T06:07:49;25.10;93.80
21255;DHT22;10785;50.674;17.954;2023-09-12T06:10:18;25.00;93.70
21255;DHT22;10785;50.674;17.954;2023-09-12T06:12:47;24.40;96.70
21255;DHT22;10785;50.674;17.954;2023-09-12T06:15:17;23.90;99.40
21255;DHT22;10785;50.674;17.954;2023-09-12T06:17:46;23.10;99.90
21255;DHT22;10785;50.674;17.954;2023-09-12T06:20:14;22.70;99.90
21255;DHT22;10785;50.674;17.954;2023-09-12T06:22:44;22.30;99.90
21255;DHT22;10785;50.674;17.954;2023-09-12T06:25:13;21.80;99.90
21255;DHT22;10785;50.674;17.954;2023-09-12T06:27:42;21.20;99.90
21255;DHT22;10785;50.674;17.954;2023-09-12T06:30:12;21.00;99.90
21255;DHT22;10785;50.674;17.954;2023-09-12T06:32:40;20.80;99.90
21255;DHT22;10785;50.674;17.954;2023-09-12T06:35:09;20.80;99.90
21255;DHT22;10785;50.674;17.954;2023-09-12T06:37:38;20.90;99.90
21255;DHT22;10785;50.674;17.954;2023-09-12T06:40:09;20.80;99.90
21255;DHT22;10785;50.674;17.954;2023-09-12T06:42:38;20.70;99.90
21255;DHT22;10785;50.674;17.954;2023-09-12T06:45:07;20.80;99.90
21255;DHT22;10785;50.674;17.954;2023-09-12T06:47:36;20.80;99.90
21255;DHT22;10785;50.674;17.954;2023-09-12T06:50:06;20.90;99.90
21255;DHT22;10785;50.674;17.954;2023-09-12T06:52:40;21.00;99.90
21255;DHT22;10785;50.674;17.954;2023-09-12T06:55:10;21.20;99.90
21255;DHT22;10785;50.674;17.954;2023-09-12T06:57:39;21.40;99.90
21255;DHT22;10785;50.674;17.954;2023-09-12T07:00:09;21.60;99.90
21255;DHT22;10785;50.674;17.954;2023-09-12T07:02:38;21.60;99.90
21255;DHT22;10785;50.674;17.954;2023-09-12T07:05:07;21.70;99.90
21255;DHT22;10785;50.674;17.954;2023-09-12T07:07:36;21.90;99.90
21255;DHT22;10785;50.674;17.954;2023-09-12T07:10:06;22.20;99.90
21255;DHT22;10785;50.674;17.954;2023-09-12T07:12:52;22.40;99.90
21255;DHT22;10785;50.674;17.954;2023-09-12T07:15:21;22.60;99.90
21255;DHT22;10785;50.674;17.954;2023-09-12T07:17:51;22.70;99.90
21255;DHT22;10785;50.674;17.954;2023-09-12T07:20:20;23.00;99.90
21255;DHT22;10785;50.674;17.954;2023-09-12T07:22:49;23.30;99.90
21255;DHT22;10785;50.674;17.954;2023-09-12T07:25:18;23.40;99.90
21255;DHT22;10785;50.674;17.954;2023-09-12T07:27:48;23.40;99.90
21255;DHT22;10785;50.674;17.954;2023-09-12T07:30:19;23.40;99.90
21255;DHT22;10785;50.674;17.954;2023-09-12T07:32:47;23.60;99.90
21255;DHT22;10785;50.674;17.954;2023-09-12T07:35:17;23.70;99.90
21255;DHT22;10785;50.674;17.954;2023-09-12T07:37:48;23.80;99.90
21255;DHT22;10785;50.674;17.954;2023-09-12T07:40:16;23.70;99.90
21255;DHT22;10785;50.674;17.954;2023-09-12T07:42:45;23.80;99.90
21255;DHT22;10785;50.674;17.954;2023-09-12T07:45:14;23.80;99.90
21255;DHT22;10785;50.674;17.954;2023-09-12T07:47:45;23.90;99.90
21255;DHT22;10785;50.674;17.954;2023-09-12T07:50:14;24.20;99.90
21255;DHT22;10785;50.674;17.954;2023-09-12T07:52:43;24.30;99.90
21255;DHT22;10785;50.674;17.954;2023-09-12T07:55:12;24.30;99.90
21255;DHT22;10785;50.674;17.954;2023-09-12T07:57:40;24.50;99.90
21255;DHT22;10785;50.674;17.954;2023-09-12T08:00:11;24.40;99.90
21255;DHT22;10785;50.674;17.954;2023-09-12T08:02:41;24.30;99.90
21255;DHT22;10785;50.674;17.954;2023-09-12T08:05:11;24.40;99.90
21255;DHT22;10785;50.674;17.954;2023-09-12T08:07:40;24.50;99.90
21255;DHT22;10785;50.674;17.954;2023-09-12T08:10:09;24.50;99.90
21255;DHT22;10785;50.674;17.954;2023-09-12T08:12:38;24.40;99.90
21255;DHT22;10785;50.674;17.954;2023-09-12T08:15:09;24.50;99.90
21255;DHT22;10785;50.674;17.954;2023-09-12T08:17:38;24.50;99.90
21255;DHT22;10785;50.674;17.954;2023-09-12T08:20:08;24.60;99.90
21255;DHT22;10785;50.674;17.954;2023-09-12T08:22:40;24.50;99.90
21255;DHT22;10785;50.674;17.954;2023-09-12T08:25:09;24.60;99.90
21255;DHT22;10785;50.674;17.954;2023-09-12T08:27:40;24.80;99.90
21255;DHT22;10785;50.674;17.954;2023-09-12T08:30:12;25.00;97.40
21255;DHT22;10785;50.674;17.954;2023-09-12T08:32:41;25.20;97.10
21255;DHT22;10785;50.674;17.954;2023-09-12T08:35:13;25.40;94.30
21255;DHT22;10785;50.674;17.954;2023-09-12T08:37:43;25.40;95.60
21255;DHT22;10785;50.674;17.954;2023-09-12T08:40:12;25.40;96.70
21255;DHT22;10785;50.674;17.954;2023-09-12T08:42:43;25.40;97.50
21255;DHT22;10785;50.674;17.954;2023-09-12T08:45:14;25.30;99.40
21255;DHT22;10785;50.674;17.954;2023-09-12T08:47:45;25.30;99.90
21255;DHT22;10785;50.674;17.954;2023-09-12T08:50:15;25.40;99.90
21255;DHT22;10785;50.674;17.954;2023-09-12T08:52:47;25.50;99.20
21255;DHT22;10785;50.674;17.954;2023-09-12T08:55:33;25.50;99.90
21255;DHT22;10785;50.674;17.954;2023-09-12T08:58:04;25.40;99.90
21255;DHT22;10785;50.674;17.954;2023-09-12T09:00:34;25.40;99.90
21255;DHT22;10785;50.674;17.954;2023-09-12T09:03:04;25.50;98.70
21255;DHT22;10785;50.674;17.954;2023-09-12T09:05:35;25.70;99.90
21255;DHT22;10785;50.674;17.954;2023-09-12T09:08:06;25.90;98.80
21255;DHT22;10785;50.674;17.954;2023-09-12T09:10:36;25.90;99.20
21255;DHT22;10785;50.674;17.954;2023-09-12T09:13:17;26.00;99.70
21255;DHT22;10785;50.674;17.954;2023-09-12T09:15:46;26.00;98.60
21255;DHT22;10785;50.674;17.954;2023-09-12T09:18:15;26.00;99.90
21255;DHT22;10785;50.674;17.954;2023-09-12T09:20:45;26.20;99.00
21255;DHT22;10785;50.674;17.954;2023-09-12T09:23:18;26.10;98.40
21255;DHT22;10785;50.674;17.954;2023-09-12T09:25:52;26.10;97.40
21255;DHT22;10785;50.674;17.954;2023-09-12T09:28:22;26.20;99.20
21255;DHT22;10785;50.674;17.954;2023-09-12T09:30:52;26.40;97.60
21255;DHT22;10785;50.674;17.954;2023-09-12T09:33:23;26.50;96.50
21255;DHT22;10785;50.674;17.954;2023-09-12T09:36:02;26.70;96.30
21255;DHT22;10785;50.674;17.954;2023-09-12T09:38:34;26.60;95.80
21255;DHT22;10785;50.674;17.954;2023-09-12T09:41:05;26.60;97.80
21255;DHT22;10785;50.674;17.954;2023-09-12T09:43:35;26.70;96.30
21255;DHT22;10785;50.674;17.954;2023-09-12T09:46:04;26.90;96.00
21255;DHT22;10785;50.674;17.954;2023-09-12T09:48:33;26.90;93.60
21255;DHT22;10785;50.674;17.954;2023-09-12T09:51:03;27.00;93.60
21255;DHT22;10785;50.674;17.954;2023-09-12T09:53:34;27.00;94.80
21255;DHT22;10785;50.674;17.954;2023-09-12T09:56:09;27.00;93.70
21255;DHT22;10785;50.674;17.954;2023-09-12T09:58:45;27.10;94.20
21255;DHT22;10785;50.674;17.954;2023-09-12T10:01:18;27.10;93.10
21255;DHT22;10785;50.674;17.954;2023-09-12T10:03:49;27.30;92.10
21255;DHT22;10785;50.674;17.954;2023-09-12T10:06:19;27.40;90.60
21255;DHT22;10785;50.674;17.954;2023-09-12T10:08:51;27.50;90.70
21255;DHT22;10785;50.674;17.954;2023-09-12T10:11:23;27.40;90.30
21255;DHT22;10785;50.674;17.954;2023-09-12T10:13:54;27.40;90.80
21255;DHT22;10785;50.674;17.954;2023-09-12T10:16:24;27.50;85.90
21255;DHT22;10785;50.674;17.954;2023-09-12T10:18:58;27.60;87.60
21255;DHT22;10785;50.674;17.954;2023-09-12T10:21:29;27.80;85.70
21255;DHT22;10785;50.674;17.954;2023-09-12T10:24:03;27.80;85.00
21255;DHT22;10785;50.674;17.954;2023-09-12T10:26:34;27.90;79.50
21255;DHT22;10785;50.674;17.954;2023-09-12T10:29:03;27.90;78.10
21255;DHT22;10785;50.674;17.954;2023-09-12T10:31:33;27.90;77.40
21255;DHT22;10785;50.674;17.954;2023-09-12T10:34:04;28.00;75.00
21255;DHT22;10785;50.674;17.954;2023-09-12T10:36:38;28.10;75.10
21255;DHT22;10785;50.674;17.954;2023-09-12T10:39:11;28.30;68.30
21255;DHT22;10785;50.674;17.954;2023-09-12T10:41:41;28.30;67.50
21255;DHT22;10785;50.674;17.954;2023-09-12T10:44:15;28.50;38.90
21255;DHT22;10785;50.674;17.954;2023-09-12T10:46:45;28.50;34.80
21255;DHT22;10785;50.674;17.954;2023-09-12T10:49:15;28.70;30.80
21255;DHT22;10785;50.674;17.954;2023-09-12T10:51:46;28.70;25.20
21255;DHT22;10785;50.674;17.954;2023-09-12T10:54:23;28.80;32.80
21255;DHT22;10785;50.674;17.954;2023-09-12T10:57:13;28.90;32.20
21255;DHT22;10785;50.674;17.954;2023-09-12T11:00:10;29.10;25.70
21255;DHT22;10785;50.674;17.954;2023-09-12T11:02:40;28.80;25.00
21255;DHT22;10785;50.674;17.954;2023-09-12T11:05:37;28.90;19.50
21255;DHT22;10785;50.674;17.954;2023-09-12T11:08:06;28.90;10.50
21255;DHT22;10785;50.674;17.954;2023-09-12T11:10:37;28.90;16.10
21255;DHT22;10785;50.674;17.954;2023-09-12T11:13:17;29.10;13.70
21255;DHT22;10785;50.674;17.954;2023-09-12T11:16:10;29.30;11.80
21255;DHT22;10785;50.674;17.954;2023-09-12T11:19:13;29.20;12.70
21255;DHT22;10785;50.674;17.954;2023-09-12T11:21:44;29.40;15.30
21255;DHT22;10785;50.674;17.954;2023-09-12T11:24:17;29.20;11.70
21255;DHT22;10785;50.674;17.954;2023-09-12T11:27:23;29.20;13.90
21255;DHT22;10785;50.674;17.954;2023-09-12T11:29:52;29.40;3.90
21255;DHT22;10785;50.674;17.954;2023-09-12T11:32:26;29.50;1.90
21255;DHT22;10785;50.674;17.954;2023-09-12T11:34:56;29.50;4.70
21255;DHT22;10785;50.674;17.954;2023-09-12T11:37:26;29.30;5.60
21255;DHT22;10785;50.674;17.954;2023-09-12T11:39:57;29.50;1.30
21255;DHT22;10785;50.674;17.954;2023-09-12T11:42:27;29.40;2.60
21255;DHT22;10785;50.674;17.954;2023-09-12T11:44:56;29.40;1.00
21255;DHT22;10785;50.674;17.954;2023-09-12T11:47:26;29.60;1.00
21255;DHT22;10785;50.674;17.954;2023-09-12T11:49:55;29.70;1.00
21255;DHT22;10785;50.674;17.954;2023-09-12T11:52:24;29.80;1.00
21255;DHT22;10785;50.674;17.954;2023-09-12T11:54:54;29.90;1.00
21255;DHT22;10785;50.674;17.954;2023-09-12T11:57:23;30.00;1.00
21255;DHT22;10785;50.674;17.954;2023-09-12T11:59:54;29.90;1.00
21255;DHT22;10785;50.674;17.954;2023-09-12T12:02:24;30.00;1.00
21255;DHT22;10785;50.674;17.954;2023-09-12T12:04:53;29.80;1.00
21255;DHT22;10785;50.674;17.954;2023-09-12T12:07:24;29.80;1.00
21255;DHT22;10785;50.674;17.954;2023-09-12T12:09:54;30.00;1.00
21255;DHT22;10785;50.674;17.954;2023-09-12T12:12:24;30.30;1.00
21255;DHT22;10785;50.674;17.954;2023-09-12T12:14:54;30.30;1.00
21255;DHT22;10785;50.674;17.954;2023-09-12T12:17:23;30.40;1.00
21255;DHT22;10785;50.674;17.954;2023-09-12T12:19:52;30.40;1.00
21255;DHT22;10785;50.674;17.954;2023-09-12T12:22:21;30.20;1.00
21255;DHT22;10785;50.674;17.954;2023-09-12T12:24:50;30.10;1.00
21255;DHT22;10785;50.674;17.954;2023-09-12T12:27:20;30.10;1.00
21255;DHT22;10785;50.674;17.954;2023-09-12T12:29:49;30.00;1.00
21255;DHT22;10785;50.674;17.954;2023-09-12T12:32:19;30.20;1.00
21255;DHT22;10785;50.674;17.954;2023-09-12T12:34:48;30.20;1.00
21255;DHT22;10785;50.674;17.954;2023-09-12T12:37:37;30.10;1.00
21255;DHT22;10785;50.674;17.954;2023-09-12T12:40:11;30.00;1.00
21255;DHT22;10785;50.674;17.954;2023-09-12T12:42:42;30.00;1.00
21255;DHT22;10785;50.674;17.954;2023-09-12T12:45:22;30.00;1.00
21255;DHT22;10785;50.674;17.954;2023-09-12T12:47:57;29.90;1.00
21255;DHT22;10785;50.674;17.954;2023-09-12T12:50:27;30.00;1.00
21255;DHT22;10785;50.674;17.954;2023-09-12T12:52:56;30.00;1.00
21255;DHT22;10785;50.674;17.954;2023-09-12T12:55:26;30.00;1.00
21255;DHT22;10785;50.674;17.954;2023-09-12T12:57:54;30.00;1.00
21255;DHT22;10785;50.674;17.954;2023-09-12T13:00:23;29.80;1.00
21255;DHT22;10785;50.674;17.954;2023-09-12T13:02:53;29.70;1.00
21255;DHT22;10785;50.674;17.954;2023-09-12T13:05:25;29.60;1.00
21255;DHT22;10785;50.674;17.954;2023-09-12T13:07:53;29.70;1.00
21255;DHT22;10785;50.674;17.954;2023-09-12T13:10:23;29.70;1.00
21255;DHT22;10785;50.674;17.954;2023-09-12T13:12:52;29.70;1.00
21255;DHT22;10785;50.674;17.954;2023-09-12T13:15:20;29.50;1.00
21255;DHT22;10785;50.674;17.954;2023-09-12T13:17:58;29.60;1.00
21255;DHT22;10785;50.674;17.954;2023-09-12T13:20:27;29.40;1.00
21255;DHT22;10785;50.674;17.954;2023-09-12T13:22:56;29.20;1.00
21255;DHT22;10785;50.674;17.954;2023-09-12T13:25:25;29.10;1.00
21255;DHT22;10785;50.674;17.954;2023-09-12T13:27:53;28.90;1.00
21255;DHT22;10785;50.674;17.954;2023-09-12T13:30:22;28.90;1.00
21255;DHT22;10785;50.674;17.954;2023-09-12T13:32:51;29.10;1.00
21255;DHT22;10785;50.674;17.954;2023-09-12T13:35:21;29.30;3.80
21255;DHT22;10785;50.674;17.954;2023-09-12T13:37:52;29.30;1.00
21255;DHT22;10785;50.674;17.954;2023-09-12T13:40:21;29.30;1.00
21255;DHT22;10785;50.674;17.954;2023-09-12T13:42:50;29.20;1.00
21255;DHT22;10785;50.674;17.954;2023-09-12T13:45:19;29.30;1.00
21255;DHT22;10785;50.674;17.954;2023-09-12T13:48:12;29.30;1.00
21255;DHT22;10785;50.674;17.954;2023-09-12T13:50:43;29.40;1.00
21255;DHT22;10785;50.674;17.954;2023-09-12T13:53:12;29.30;1.00
21255;DHT22;10785;50.674;17.954;2023-09-12T13:55:42;29.30;1.00
21255;DHT22;10785;50.674;17.954;2023-09-12T13:58:10;29.30;1.00
21255;DHT22;10785;50.674;17.954;2023-09-12T14:00:39;29.30;1.00
21255;DHT22;10785;50.674;17.954;2023-09-12T14:03:08;29.20;1.00
21255;DHT22;10785;50.674;17.954;2023-09-12T14:05:37;29.10;1.00
21255;DHT22;10785;50.674;17.954;2023-09-12T14:08:10;29.10;1.00
21255;DHT22;10785;50.674;17.954;2023-09-12T14:10:38;29.10;4.20
21255;DHT22;10785;50.674;17.954;2023-09-12T14:13:08;29.10;3.00
21255;DHT22;10785;50.674;17.954;2023-09-12T14:15:48;29.10;3.80
21255;DHT22;10785;50.674;17.954;2023-09-12T14:18:19;29.10;2.10
21255;DHT22;10785;50.674;17.954;2023-09-12T14:20:49;29.10;1.20
21255;DHT22;10785;50.674;17.954;2023-09-12T14:23:21;29.00;2.40
21255;DHT22;10785;50.674;17.954;2023-09-12T14:25:52;29.20;5.20
21255;DHT22;10785;50.674;17.954;2023-09-12T14:28:21;29.30;1.20
21255;DHT22;10785;50.674;17.954;2023-09-12T14:30:51;29.30;1.00
21255;DHT22;10785;50.674;17.954;2023-09-12T14:33:20;29.30;1.60
21255;DHT22;10785;50.674;17.954;2023-09-12T14:35:51;29.40;1.00
21255;DHT22;10785;50.674;17.954;2023-09-12T14:38:21;29.50;1.00
21255;DHT22;10785;50.674;17.954;2023-09-12T14:40:52;29.50;1.00
21255;DHT22;10785;50.674;17.954;2023-09-12T14:43:21;29.50;1.00
21255;DHT22;10785;50.674;17.954;2023-09-12T14:45:50;29.50;1.00
21255;DHT22;10785;50.674;17.954;2023-09-12T14:48:19;29.40;1.00
21255;DHT22;10785;50.674;17.954;2023-09-12T14:50:48;29.30;1.00
21255;DHT22;10785;50.674;17.954;2023-09-12T14:53:17;29.40;1.00
21255;DHT22;10785;50.674;17.954;2023-09-12T14:55:47;29.40;1.00
21255;DHT22;10785;50.674;17.954;2023-09-12T14:58:16;29.40;1.00
21255;DHT22;10785;50.674;17.954;2023-09-12T15:00:44;29.30;1.00
21255;DHT22;10785;50.674;17.954;2023-09-12T15:03:13;29.30;1.00
21255;DHT22;10785;50.674;17.954;2023-09-12T15:05:42;29.20;1.00
21255;DHT22;10785;50.674;17.954;2023-09-12T15:08:11;29.20;1.00
21255;DHT22;10785;50.674;17.954;2023-09-12T15:10:40;29.20;1.00
21255;DHT22;10785;50.674;17.954;2023-09-12T15:13:10;29.20;1.00
21255;DHT22;10785;50.674;17.954;2023-09-12T15:15:40;29.20;1.00
21255;DHT22;10785;50.674;17.954;2023-09-12T15:18:09;29.10;1.00
21255;DHT22;10785;50.674;17.954;2023-09-12T15:20:39;29.10;1.00
21255;DHT22;10785;50.674;17.954;2023-09-12T15:23:07;29.00;1.00
21255;DHT22;10785;50.674;17.954;2023-09-12T15:25:36;29.00;3.50
21255;DHT22;10785;50.674;17.954;2023-09-12T15:28:07;29.00;3.70
21255;DHT22;10785;50.674;17.954;2023-09-12T15:30:37;29.10;1.90
21255;DHT22;10785;50.674;17.954;2023-09-12T15:33:09;29.00;4.40
21255;DHT22;10785;50.674;17.954;2023-09-12T15:35:37;28.90;4.40
21255;DHT22;10785;50.674;17.954;2023-09-12T15:38:06;28.90;5.80
21255;DHT22;10785;50.674;17.954;2023-09-12T15:40:35;28.90;3.00